createdAt,value
2023-03-30T00:01:14.620Z,1.88
2023-03-30T00:03:43.062Z,2.10
2023-03-30T00:06:10.943Z,2.15
2023-03-30T00:08:38.286Z,1.80
2023-03-30T00:11:11.972Z,2.35
2023-03-30T00:13:39.823Z,1.65
2023-03-30T00:16:09.536Z,2.10
2023-03-30T00:18:36.930Z,1.95
2023-03-30T00:21:05.873Z,2.75
2023-03-30T00:23:33.077Z,1.40
2023-03-30T00:26:00.767Z,2.15
2023-03-30T00:28:30.723Z,1.98
2023-03-30T00:30:57.616Z,1.63
2023-03-30T00:33:37.245Z,1.70
2023-03-30T00:36:11.533Z,2.45
2023-03-30T00:38:38.726Z,2.20
2023-03-30T00:41:07.488Z,1.98
2023-03-30T00:43:34.880Z,2.20
2023-03-30T00:46:01.855Z,2.40
2023-03-30T00:48:40.986Z,2.67
2023-03-30T00:51:10.541Z,2.10
2023-03-30T00:53:38.854Z,2.35
2023-03-30T00:56:08.713Z,1.90
2023-03-30T00:58:37.646Z,2.20
2023-03-30T01:01:08.332Z,2.08
2023-03-30T01:03:43.985Z,2.42
2023-03-30T01:06:12.162Z,2.40
2023-03-30T01:08:41.034Z,2.00
2023-03-30T01:11:08.940Z,1.95
2023-03-30T01:13:42.904Z,2.45
2023-03-30T01:16:23.300Z,1.98
2023-03-30T01:19:32.727Z,2.15
2023-03-30T01:22:13.286Z,1.60
2023-03-30T01:25:09.389Z,1.63
2023-03-30T01:28:14.137Z,2.10
2023-03-30T01:31:03.196Z,2.58
2023-03-30T01:33:49.065Z,2.10
2023-03-30T01:36:37.443Z,2.17
2023-03-30T01:39:09.476Z,2.03
2023-03-30T01:41:59.470Z,2.38
2023-03-30T01:44:35.009Z,2.03
2023-03-30T01:47:17.031Z,2.15
2023-03-30T01:50:02.104Z,1.75
2023-03-30T01:52:42.837Z,1.88
2023-03-30T01:55:15.985Z,2.25
2023-03-30T01:57:45.521Z,2.40
2023-03-30T02:00:18.084Z,1.73
2023-03-30T02:03:00.425Z,2.35
2023-03-30T02:05:30.627Z,2.70
2023-03-30T02:08:15.201Z,1.98
2023-03-30T02:10:44.986Z,2.60
2023-03-30T02:13:13.655Z,2.55
2023-03-30T02:15:46.598Z,1.90
2023-03-30T02:20:40.854Z,2.40
2023-03-30T02:23:08.708Z,2.65
2023-03-30T02:25:38.653Z,2.22
2023-03-30T02:28:08.740Z,2.78
2023-03-30T02:30:39.976Z,2.72
2023-03-30T02:33:10.252Z,2.30
2023-03-30T02:35:55.831Z,2.90
2023-03-30T02:39:07.110Z,3.45
2023-03-30T02:41:53.370Z,2.20
2023-03-30T02:44:35.406Z,2.40
2023-03-30T02:47:06.989Z,2.42
2023-03-30T02:49:47.122Z,3.22
2023-03-30T02:52:34.081Z,2.85
2023-03-30T02:55:12.490Z,3.00
2023-03-30T02:57:54.134Z,2.78
2023-03-30T03:00:38.850Z,2.80
2023-03-30T03:03:17.543Z,2.78
2023-03-30T03:05:45.007Z,2.45
2023-03-30T03:08:19.345Z,2.63
2023-03-30T03:10:46.141Z,2.60
2023-03-30T03:13:15.136Z,2.70
2023-03-30T03:15:45.284Z,2.90
2023-03-30T03:18:15.605Z,3.05
2023-03-30T03:20:42.437Z,4.38
2023-03-30T03:23:09.272Z,3.45
2023-03-30T03:25:37.052Z,3.25
2023-03-30T03:28:04.433Z,2.60
2023-03-30T03:30:31.597Z,2.75
2023-03-30T03:32:58.504Z,2.95
2023-03-30T03:35:25.901Z,2.80
2023-03-30T03:37:52.739Z,2.80
2023-03-30T03:40:19.607Z,3.05
2023-03-30T03:42:46.768Z,3.00
2023-03-30T03:45:13.692Z,3.03
2023-03-30T03:47:40.849Z,2.53
2023-03-30T03:50:10.081Z,3.28
2023-03-30T03:52:37.593Z,2.75
2023-03-30T03:55:05.437Z,2.83
2023-03-30T03:57:32.557Z,3.25
2023-03-30T04:00:00.006Z,3.05
2023-03-30T04:02:28.155Z,3.63
2023-03-30T04:04:55.749Z,3.55
2023-03-30T04:07:25.837Z,3.17
2023-03-30T04:09:52.997Z,2.92
2023-03-30T04:12:20.804Z,3.80
2023-03-30T04:14:48.609Z,2.95
2023-03-30T04:17:15.630Z,2.97
2023-03-30T04:19:42.756Z,2.60
2023-03-30T04:22:09.914Z,2.53
2023-03-30T04:24:36.720Z,3.20
2023-03-30T04:27:03.974Z,3.10
2023-03-30T04:29:31.196Z,3.65
2023-03-30T04:32:03.003Z,2.53
2023-03-30T04:34:31.409Z,3.10
2023-03-30T04:36:58.620Z,2.95
2023-03-30T04:39:30.510Z,3.33
2023-03-30T04:41:57.383Z,3.58
2023-03-30T04:44:25.617Z,3.80
2023-03-30T04:46:52.511Z,3.28
2023-03-30T04:49:20.259Z,3.45
2023-03-30T04:51:47.101Z,4.05
2023-03-30T04:54:14.331Z,3.00
2023-03-30T04:56:41.222Z,4.32
2023-03-30T04:59:08.333Z,3.00
2023-03-30T05:01:35.533Z,3.90
2023-03-30T05:04:02.460Z,3.30
2023-03-30T05:06:29.992Z,2.90
2023-03-30T05:08:57.257Z,3.30
2023-03-30T05:11:24.066Z,3.65
2023-03-30T05:13:52.725Z,3.03
2023-03-30T05:16:20.164Z,3.65
2023-03-30T05:18:49.342Z,3.28
2023-03-30T05:21:18.008Z,3.15
2023-03-30T05:23:45.159Z,3.15
2023-03-30T05:26:12.024Z,2.97
2023-03-30T05:28:40.850Z,3.13
2023-03-30T05:31:08.171Z,3.33
2023-03-30T05:33:35.411Z,3.30
2023-03-30T05:36:02.396Z,3.10
2023-03-30T05:38:29.572Z,3.60
2023-03-30T05:40:56.705Z,3.42
2023-03-30T05:43:26.567Z,3.53
2023-03-30T05:45:54.366Z,3.47
2023-03-30T05:48:21.299Z,3.00
2023-03-30T05:50:49.235Z,3.08
2023-03-30T05:53:17.359Z,3.08
2023-03-30T05:55:49.749Z,3.55
2023-03-30T05:58:18.346Z,3.25
2023-03-30T06:00:48.623Z,3.65
2023-03-30T06:03:16.687Z,6.47
2023-03-30T06:05:44.546Z,3.33
2023-03-30T06:08:13.931Z,2.63
2023-03-30T06:10:42.617Z,3.30
2023-03-30T06:13:09.733Z,3.17
2023-03-30T06:15:37.885Z,2.85
2023-03-30T06:18:05.623Z,3.03
2023-03-30T06:23:15.997Z,2.50
2023-03-30T06:25:52.843Z,2.72
2023-03-30T06:28:21.243Z,2.58
2023-03-30T06:30:50.016Z,3.05
2023-03-30T06:33:18.495Z,3.05
2023-03-30T06:35:53.124Z,3.08
2023-03-30T06:38:22.171Z,3.58
2023-03-30T06:40:49.718Z,3.20
2023-03-30T06:43:22.477Z,3.30
2023-03-30T06:45:53.621Z,2.85
2023-03-30T06:48:23.977Z,2.80
2023-03-30T06:50:52.438Z,2.42
2023-03-30T12:23:23.563Z,0.70
2023-03-30T12:26:10.800Z,0.70
2023-03-30T12:31:19.346Z,1.00
2023-03-30T12:33:53.723Z,1.17
2023-03-30T12:36:49.066Z,1.08
2023-03-30T12:39:37.468Z,0.90
2023-03-30T12:42:10.208Z,0.85
2023-03-30T12:44:47.967Z,1.20
2023-03-30T12:47:31.169Z,1.17
2023-03-30T12:50:15.810Z,0.82
2023-03-30T12:52:51.522Z,0.80
2023-03-30T12:55:24.427Z,0.90
2023-03-30T13:00:36.945Z,1.00
2023-03-30T13:03:18.753Z,0.82
2023-03-30T13:05:51.459Z,1.08
2023-03-30T13:08:40.370Z,1.20
2023-03-30T13:11:22.285Z,1.08
2023-03-30T13:13:49.095Z,0.80
2023-03-30T13:16:51.142Z,1.00
2023-03-30T13:19:45.692Z,0.80
2023-03-30T13:22:12.560Z,1.15
2023-03-30T13:24:42.251Z,0.85
2023-03-30T13:27:14.909Z,1.10
2023-03-30T13:29:48.646Z,1.20
2023-03-30T13:32:28.291Z,1.15
2023-03-30T13:35:17.162Z,1.67
2023-03-30T13:37:43.860Z,1.17
2023-03-30T13:40:37.894Z,1.20
2023-03-30T13:43:21.684Z,1.77
2023-03-30T13:46:13.282Z,1.50
2023-03-30T13:48:59.696Z,3.67
2023-03-30T13:51:30.176Z,2.67
2023-03-30T13:54:05.117Z,1.65
2023-03-30T13:56:36.297Z,1.52
2023-03-30T13:59:12.046Z,1.13
2023-03-30T14:01:40.027Z,1.38
2023-03-30T14:04:11.036Z,1.48
2023-03-30T14:06:47.068Z,1.50
2023-03-30T14:09:23.692Z,1.40
2023-03-30T14:11:57.003Z,1.42
2023-03-30T14:14:30.099Z,1.15
2023-03-30T14:17:00.028Z,1.60
2023-03-30T14:19:28.355Z,1.20
2023-03-30T14:22:14.101Z,1.17
2023-03-30T14:25:00.921Z,1.48
2023-03-30T14:27:36.080Z,1.13
2023-03-30T14:30:07.746Z,1.25
2023-03-30T14:32:34.726Z,1.40
2023-03-30T14:35:05.812Z,1.30
2023-03-30T14:37:34.717Z,1.23
2023-03-30T14:40:01.895Z,1.55
2023-03-30T14:42:36.349Z,1.45
2023-03-30T14:45:03.562Z,1.40
2023-03-30T14:47:30.508Z,1.65
2023-03-30T14:50:05.144Z,1.85
2023-03-30T14:52:37.952Z,1.52
2023-03-30T14:57:39.254Z,1.85
2023-03-30T15:00:23.707Z,1.65
2023-03-30T15:02:55.026Z,2.28
2023-03-30T15:05:25.662Z,2.15
2023-03-30T15:07:53.138Z,1.55
2023-03-30T15:10:53.816Z,1.60
2023-03-30T15:13:31.619Z,1.60
2023-03-30T15:16:00.540Z,2.00
2023-03-30T15:18:29.852Z,1.33
2023-03-30T15:20:58.864Z,1.67
2023-03-30T15:23:31.463Z,1.42
2023-03-30T15:26:01.583Z,1.20
2023-03-30T15:28:35.019Z,1.27
2023-03-30T15:31:02.144Z,1.10
2023-03-30T15:33:36.616Z,1.17
2023-03-30T15:36:11.459Z,0.80
2023-03-30T15:38:46.751Z,1.40
2023-03-30T15:41:18.235Z,1.50
2023-03-30T15:43:59.261Z,1.27
2023-03-30T15:46:29.861Z,1.45
2023-03-30T15:48:58.234Z,1.10
2023-03-30T15:51:25.397Z,0.82
2023-03-30T15:54:01.748Z,0.80
2023-03-30T15:56:41.400Z,1.00
2023-03-30T15:59:21.354Z,0.77
2023-03-30T18:22:11.653Z,1.42
2023-03-30T18:24:39.066Z,1.10
2023-03-30T18:27:05.894Z,0.80
2023-03-30T18:29:33.870Z,1.42
2023-03-30T18:32:01.053Z,0.98
2023-03-30T18:34:27.979Z,1.00
2023-03-30T18:36:55.007Z,1.25
2023-03-30T18:39:22.326Z,1.17
2023-03-30T18:41:49.787Z,0.75
2023-03-30T18:44:17.010Z,0.95
2023-03-30T18:46:50.078Z,0.90
2023-03-30T18:51:45.322Z,1.10
2023-03-30T18:54:12.120Z,0.82
2023-03-30T18:56:39.370Z,1.20
2023-03-30T18:59:06.426Z,1.10
2023-03-30T19:01:33.616Z,1.23
2023-03-30T19:04:00.758Z,1.27
2023-03-30T19:06:28.671Z,1.08
2023-03-30T19:08:55.573Z,1.38
2023-03-30T19:11:25.143Z,1.02
2023-03-30T19:13:52.476Z,1.30
2023-03-30T19:16:21.340Z,1.45
2023-03-30T19:18:49.770Z,1.40
2023-03-30T19:21:18.215Z,1.30
2023-03-30T19:23:45.351Z,1.20
2023-03-30T19:26:13.054Z,1.95
2023-03-30T19:28:40.649Z,1.50
2023-03-30T19:31:12.178Z,1.98
2023-03-30T19:33:40.128Z,1.67
2023-03-30T19:36:08.322Z,1.90
2023-03-30T19:38:35.763Z,1.70
2023-03-30T19:41:04.829Z,1.60
2023-03-30T19:43:31.827Z,1.90
2023-03-30T19:45:58.882Z,1.55
2023-03-30T19:48:27.435Z,1.52
2023-03-30T19:50:54.418Z,1.30
2023-03-30T19:53:21.345Z,1.55
2023-03-30T19:55:48.112Z,1.48
2023-03-30T19:58:14.938Z,1.85
2023-03-30T20:00:43.970Z,1.48
2023-03-30T20:03:12.600Z,1.38
2023-03-30T20:05:39.968Z,1.40
2023-03-30T20:08:17.281Z,1.50
2023-03-30T20:10:50.300Z,1.38
2023-03-30T20:13:17.312Z,1.85
2023-03-30T20:15:45.440Z,1.30
